Time;durP1;ratioP1;P1;durP2;ratioP2;P2;SDS_P1;SDS_P2;PMS_P1;PMS_P2;Temp;Humidity;BMP_temperature;BMP_pressure;BME280_temperature;BME280_humidity;BME280_pressure;Samples;Min_cycle;Max_cycle;Signal;HPM_P1;HPM_P2
2021/11/01 00:01:48;;;;;;;12.45;2.88;;;12.40;99.90;;;;;;5042485;28;20461;-79
2021/11/01 00:04:13;;;;;;;10.70;2.30;;;12.30;99.90;;;;;;5048483;28;20067;-79
2021/11/01 00:06:39;;;;;;;14.40;2.75;;;12.30;99.90;;;;;;5048544;28;20029;-79
2021/11/01 00:09:05;;;;;;;12.73;2.70;;;12.20;99.90;;;;;;5050191;28;20069;-79
2021/11/01 00:11:30;;;;;;;10.10;2.20;;;12.40;99.90;;;;;;5050312;28;20027;-79
2021/11/01 00:13:56;;;;;;;12.85;2.75;;;12.30;99.90;;;;;;5049195;28;20021;-78
2021/11/01 00:16:21;;;;;;;17.17;2.58;;;12.30;99.90;;;;;;5042732;28;20048;-79
2021/11/01 00:18:47;;;;;;;14.85;2.67;;;12.30;99.90;;;;;;5044050;28;20033;-79
2021/11/01 00:21:13;;;;;;;11.18;2.60;;;12.30;99.90;;;;;;5025672;28;20017;-79
2021/11/01 00:23:40;;;;;;;14.98;3.47;;;12.30;99.90;;;;;;5044101;28;20021;-79
2021/11/01 00:26:05;;;;;;;12.00;2.60;;;12.30;99.90;;;;;;5031800;28;20432;-79
2021/11/01 00:28:31;;;;;;;13.88;2.58;;;12.40;99.90;;;;;;5043637;28;20082;-79
2021/11/01 00:30:57;;;;;;;16.13;2.63;;;12.40;99.90;;;;;;5031107;28;20075;-79
2021/11/01 00:33:25;;;;;;;7.82;2.00;;;12.40;99.90;;;;;;5044775;28;20074;-79
2021/11/01 00:35:51;;;;;;;9.38;2.50;;;12.40;99.90;;;;;;5042516;28;20684;-79
2021/11/01 00:38:18;;;;;;;13.35;2.72;;;12.30;99.90;;;;;;5030354;28;20032;-79
2021/11/01 00:40:43;;;;;;;11.85;2.13;;;12.30;99.90;;;;;;5043213;28;20017;-79
2021/11/01 00:43:09;;;;;;;15.05;2.78;;;12.30;99.90;;;;;;5032144;28;20124;-78
2021/11/01 00:45:36;;;;;;;16.70;2.95;;;12.40;99.90;;;;;;5044858;28;20031;-79
2021/11/01 00:48:03;;;;;;;12.93;2.33;;;12.40;99.90;;;;;;5030193;28;20107;-79
2021/11/01 00:50:30;;;;;;;13.98;2.65;;;12.30;99.90;;;;;;5040260;28;20025;-79
2021/11/01 00:52:56;;;;;;;14.65;2.60;;;12.40;99.90;;;;;;5042783;28;20028;-79
2021/11/01 00:55:33;;;;;;;8.35;2.33;;;12.30;99.90;;;;;;5039533;28;20045;-79
2021/11/01 00:57:58;;;;;;;14.30;2.95;;;12.30;99.90;;;;;;5042906;28;20531;-78
2021/11/01 01:00:24;;;;;;;14.40;2.17;;;12.30;99.90;;;;;;5039512;28;20033;-78
2021/11/01 01:02:50;;;;;;;9.15;2.75;;;12.30;99.90;;;;;;5044872;28;20028;-78
2021/11/01 01:05:16;;;;;;;10.93;2.50;;;12.30;99.90;;;;;;5044880;28;20445;-78
2021/11/01 01:07:42;;;;;;;13.43;3.38;;;12.40;99.90;;;;;;5045991;28;20033;-78
2021/11/01 01:10:08;;;;;;;15.35;2.40;;;12.40;99.90;;;;;;5048262;28;20116;-79
2021/11/01 01:12:34;;;;;;;11.23;2.80;;;12.40;99.90;;;;;;5043038;28;20390;-79
2021/11/01 01:15:03;;;;;;;16.05;2.78;;;12.30;99.90;;;;;;5047700;28;20037;-79
2021/11/01 01:17:30;;;;;;;15.30;3.17;;;12.20;99.90;;;;;;5041910;28;20017;-79
2021/11/01 01:20:16;;;;;;;13.70;3.05;;;12.20;99.90;;;;;;5043879;28;20018;-79
2021/11/01 01:22:43;;;;;;;8.52;2.03;;;12.20;99.90;;;;;;5040946;28;20025;-78
2021/11/01 01:25:22;;;;;;;10.93;2.20;;;12.10;99.90;;;;;;5050157;28;20021;-79
2021/11/01 01:27:50;;;;;;;12.77;2.33;;;12.10;99.90;;;;;;5000828;28;20381;-79
2021/11/01 01:30:16;;;;;;;7.72;2.22;;;12.00;99.90;;;;;;5043568;28;20060;-79
2021/11/01 01:32:44;;;;;;;16.85;2.97;;;12.00;99.90;;;;;;5032011;28;20017;-79
2021/11/01 01:35:11;;;;;;;14.05;2.42;;;12.00;99.90;;;;;;5050994;28;20025;-78
2021/11/01 01:37:37;;;;;;;8.82;2.20;;;11.90;99.90;;;;;;5039786;28;20104;-79
2021/11/01 01:40:06;;;;;;;11.20;2.42;;;11.90;99.90;;;;;;5045352;28;20104;-78
2021/11/01 01:42:33;;;;;;;11.65;2.00;;;11.90;99.90;;;;;;5040239;28;20079;-78
2021/11/01 01:44:59;;;;;;;12.93;2.40;;;11.90;99.90;;;;;;5045071;28;20025;-78
2021/11/01 01:47:24;;;;;;;8.63;2.30;;;11.90;99.90;;;;;;5053204;28;20056;-78
2021/11/01 01:49:50;;;;;;;9.75;2.42;;;11.90;99.90;;;;;;5050922;28;20041;-79
2021/11/01 01:52:16;;;;;;;10.95;2.90;;;11.90;99.90;;;;;;5048075;28;20480;-79
2021/11/01 01:54:42;;;;;;;10.60;4.72;;;11.90;99.90;;;;;;5052685;28;20025;-79
2021/11/01 01:57:08;;;;;;;13.20;2.33;;;11.90;99.90;;;;;;5033377;28;20543;-79
2021/11/01 01:59:34;;;;;;;9.93;2.20;;;11.80;99.90;;;;;;5049203;28;20374;-79
2021/11/01 02:02:00;;;;;;;12.40;2.35;;;11.80;99.90;;;;;;5049070;28;20028;-79
2021/11/01 02:04:27;;;;;;;12.45;2.30;;;11.80;99.90;;;;;;5045347;28;20021;-79
2021/11/01 02:06:56;;;;;;;10.02;2.55;;;11.80;99.90;;;;;;5045270;28;20491;-78
2021/11/01 02:09:34;;;;;;;13.23;2.88;;;11.70;99.90;;;;;;5050957;28;20087;-78
2021/11/01 02:12:04;;;;;;;13.10;2.55;;;11.70;99.90;;;;;;5050246;28;20056;-78
2021/11/01 02:14:46;;;;;;;10.50;2.10;;;11.70;99.90;;;;;;5045346;28;20111;-79
2021/11/01 02:17:22;;;;;;;18.38;2.83;;;11.60;99.90;;;;;;5051634;28;20112;-78
2021/11/01 02:19:51;;;;;;;13.10;2.67;;;11.70;99.90;;;;;;5046516;28;20394;-79
2021/11/01 02:22:42;;;;;;;9.38;2.50;;;11.60;99.90;;;;;;5047582;28;20033;-78
2021/11/01 02:25:26;;;;;;;9.68;3.25;;;11.60;99.90;;;;;;5048354;28;20033;-79
2021/11/01 02:27:52;;;;;;;15.52;3.00;;;11.60;99.90;;;;;;5049023;28;20028;-79
2021/11/01 02:30:19;;;;;;;14.35;2.55;;;11.60;99.90;;;;;;5052190;28;20531;-79
2021/11/01 02:32:46;;;;;;;14.18;2.72;;;11.70;99.90;;;;;;5046477;28;20036;-79
2021/11/01 02:35:12;;;;;;;7.25;2.30;;;11.70;99.90;;;;;;5046200;28;20423;-79
2021/11/01 02:37:40;;;;;;;8.40;2.22;;;11.60;99.90;;;;;;5033946;28;20100;-79
2021/11/01 02:40:08;;;;;;;9.55;2.25;;;11.50;99.90;;;;;;5047695;28;20646;-79
2021/11/01 02:42:34;;;;;;;8.38;2.47;;;11.60;99.90;;;;;;5035206;28;20041;-79
2021/11/01 02:45:09;;;;;;;10.00;2.63;;;11.60;99.90;;;;;;5034925;28;20102;-79
2021/11/01 02:47:35;;;;;;;9.45;2.53;;;11.60;99.90;;;;;;5043076;28;20409;-78
2021/11/01 02:50:07;;;;;;;12.50;2.22;;;11.60;99.90;;;;;;5048760;28;20041;-78
2021/11/01 02:52:33;;;;;;;15.40;2.60;;;11.60;99.90;;;;;;5047190;28;20021;-78
2021/11/01 02:54:59;;;;;;;12.52;2.42;;;11.70;99.90;;;;;;5048315;28;20029;-78
2021/11/01 02:57:25;;;;;;;12.82;2.40;;;11.70;99.90;;;;;;5048623;28;20025;-78
2021/11/01 02:59:50;;;;;;;12.32;2.58;;;11.80;99.90;;;;;;5051044;28;20021;-79
2021/11/01 03:02:17;;;;;;;11.32;2.40;;;11.70;99.90;;;;;;5052466;28;20017;-79
2021/11/01 03:04:43;;;;;;;10.48;2.35;;;11.70;99.90;;;;;;5044458;28;20033;-78
2021/11/01 03:07:10;;;;;;;13.45;2.50;;;11.70;99.90;;;;;;5046449;28;20505;-79
2021/11/01 03:09:39;;;;;;;17.65;2.67;;;11.70;99.90;;;;;;5044392;28;20060;-78
2021/11/01 03:12:08;;;;;;;8.93;2.58;;;11.70;99.90;;;;;;5053380;28;20041;-78
2021/11/01 03:14:42;;;;;;;8.65;2.28;;;11.80;99.90;;;;;;5047555;28;20120;-78
2021/11/01 03:17:13;;;;;;;9.85;2.08;;;11.70;99.90;;;;;;5037000;28;20033;-78
2021/11/01 03:19:43;;;;;;;9.75;2.55;;;11.70;99.90;;;;;;5045463;28;20028;-78
2021/11/01 03:22:10;;;;;;;11.32;2.63;;;11.70;99.90;;;;;;5035787;28;20428;-78
2021/11/01 03:24:40;;;;;;;11.68;2.00;;;11.60;99.90;;;;;;5047991;28;20021;-79
2021/11/01 03:27:08;;;;;;;16.05;3.15;;;11.60;99.90;;;;;;5045705;28;20474;-78
2021/11/01 03:29:34;;;;;;;8.43;2.40;;;11.60;99.90;;;;;;5044758;28;20021;-79
2021/11/01 03:32:07;;;;;;;6.38;2.03;;;11.60;99.90;;;;;;5046420;28;20032;-80
2021/11/01 03:34:33;;;;;;;8.70;2.45;;;11.60;99.90;;;;;;5049475;28;20039;-79
2021/11/01 03:37:07;;;;;;;13.00;2.42;;;11.60;99.90;;;;;;5048360;28;20028;-79
2021/11/01 03:39:33;;;;;;;8.73;2.10;;;11.60;99.90;;;;;;5035135;28;20021;-79
2021/11/01 03:41:59;;;;;;;12.63;2.63;;;11.60;99.90;;;;;;5045403;28;20033;-79
2021/11/01 03:44:28;;;;;;;10.43;2.15;;;11.60;99.90;;;;;;5032881;28;20036;-79
2021/11/01 03:46:57;;;;;;;10.00;2.33;;;11.50;99.90;;;;;;5049286;28;20433;-79
2021/11/01 03:49:25;;;;;;;13.35;1.70;;;11.50;99.90;;;;;;5050913;28;20439;-79
2021/11/01 03:52:09;;;;;;;12.98;2.22;;;11.40;99.90;;;;;;5042649;28;20104;-79
2021/11/01 03:54:37;;;;;;;12.73;2.47;;;11.50;99.90;;;;;;5032343;28;20028;-79
2021/11/01 03:57:04;;;;;;;12.60;2.83;;;11.50;99.90;;;;;;5028480;28;20017;-79
2021/11/01 03:59:30;;;;;;;11.27;2.15;;;11.40;99.90;;;;;;5049462;28;20048;-79
2021/11/01 04:01:56;;;;;;;7.95;1.90;;;11.40;99.90;;;;;;5043905;28;20387;-79
2021/11/01 04:04:22;;;;;;;11.02;3.08;;;11.50;99.90;;;;;;5048695;28;20060;-79
2021/11/01 04:06:47;;;;;;;14.23;2.70;;;11.40;99.90;;;;;;5030993;28;20120;-79
2021/11/01 04:09:16;;;;;;;8.15;2.13;;;11.40;99.90;;;;;;5047566;28;20040;-79
2021/11/01 04:11:43;;;;;;;13.50;2.85;;;11.40;99.90;;;;;;5030785;28;20366;-79
2021/11/01 04:14:15;;;;;;;9.95;2.40;;;11.40;99.90;;;;;;5046082;28;20032;-79
2021/11/01 04:16:44;;;;;;;14.20;3.25;;;11.50;99.90;;;;;;5041723;28;20053;-79
2021/11/01 04:21:43;;;;;;;12.60;2.33;;;11.40;99.90;;;;;;5041182;28;20025;-79
2021/11/01 04:24:10;;;;;;;15.35;2.65;;;11.30;99.90;;;;;;5047183;28;20028;-79
2021/11/01 04:26:37;;;;;;;18.73;2.95;;;11.40;99.90;;;;;;5031184;28;20032;-80
2021/11/01 04:29:06;;;;;;;14.38;2.63;;;11.40;99.90;;;;;;5024514;28;20112;-79
2021/11/01 04:31:35;;;;;;;11.35;2.42;;;11.40;99.90;;;;;;5059246;28;20392;-79
2021/11/01 04:34:10;;;;;;;22.33;2.42;;;11.40;99.90;;;;;;5044298;28;20032;-79
2021/11/01 04:36:35;;;;;;;12.52;2.78;;;11.40;99.90;;;;;;5044396;28;20026;-79
2021/11/01 04:41:38;;;;;;;10.68;2.65;;;11.40;99.90;;;;;;5043200;28;20501;-79
2021/11/01 04:44:40;;;;;;;10.90;1.80;;;11.20;99.90;;;;;;5046444;28;20033;-80
2021/11/01 04:55:12;;;;;;;13.98;2.53;;;11.30;99.90;;;;;;5042037;28;20032;-79
2021/11/01 04:57:38;;;;;;;13.15;2.60;;;11.30;99.90;;;;;;5046465;28;20059;-79
2021/11/01 05:00:06;;;;;;;10.32;2.35;;;11.30;99.90;;;;;;5044653;28;20044;-79
2021/11/01 05:02:32;;;;;;;16.80;2.60;;;11.40;99.90;;;;;;5049979;28;20013;-79
2021/11/01 05:04:58;;;;;;;16.73;3.22;;;11.30;99.90;;;;;;5049926;28;20115;-79
2021/11/01 05:07:25;;;;;;;9.13;1.77;;;11.30;99.90;;;;;;5048695;28;20024;-79
2021/11/01 05:10:00;;;;;;;15.23;2.35;;;11.30;99.90;;;;;;5048649;28;20041;-79
2021/11/01 05:15:02;;;;;;;20.35;2.85;;;11.30;99.90;;;;;;5043352;28;20072;-79
2021/11/01 05:17:36;;;;;;;14.73;3.50;;;11.20;99.90;;;;;;5046386;28;20021;-80
2021/11/01 05:25:16;;;;;;;13.95;2.83;;;11.20;99.90;;;;;;5045047;28;20124;-80
2021/11/01 05:30:13;;;;;;;15.30;2.63;;;11.10;99.90;;;;;;5044889;28;20040;-79
2021/11/01 05:32:41;;;;;;;15.23;3.28;;;11.20;99.90;;;;;;5047035;28;20037;-79
2021/11/01 05:35:07;;;;;;;17.40;2.75;;;11.20;99.90;;;;;;5045596;28;20036;-80
2021/11/01 05:37:34;;;;;;;15.75;2.33;;;11.10;99.90;;;;;;5041769;28;20025;-80
2021/11/01 05:39:59;;;;;;;9.57;2.47;;;11.10;99.90;;;;;;5046409;28;20028;-80
2021/11/01 05:42:25;;;;;;;13.55;2.30;;;11.10;99.90;;;;;;5041603;28;20025;-80
2021/11/01 05:44:51;;;;;;;17.08;2.50;;;11.10;99.90;;;;;;5047398;28;20075;-79
2021/11/01 05:47:17;;;;;;;15.45;2.25;;;11.10;99.90;;;;;;5035645;28;20029;-80
2021/11/01 05:49:43;;;;;;;11.95;2.45;;;11.10;99.90;;;;;;5043296;28;20043;-80
2021/11/01 05:52:17;;;;;;;15.98;2.45;;;11.20;99.90;;;;;;5039989;28;20101;-79
2021/11/01 05:54:44;;;;;;;16.25;3.10;;;11.10;99.90;;;;;;5040013;28;20055;-79
2021/11/01 05:57:18;;;;;;;8.93;2.20;;;11.20;99.90;;;;;;5046378;28;20028;-80
2021/11/01 06:02:40;;;;;;;14.98;3.08;;;11.10;99.90;;;;;;5045742;28;20410;-79
2021/11/01 06:05:20;;;;;;;20.00;2.40;;;11.10;99.90;;;;;;5042740;28;20044;-79
2021/11/01 06:15:28;;;;;;;18.27;2.10;;;11.10;99.90;;;;;;5043011;28;20040;-79
2021/11/01 06:17:55;;;;;;;13.25;2.70;;;11.20;99.90;;;;;;5046384;28;20100;-80
2021/11/01 06:20:21;;;;;;;13.05;2.75;;;11.10;99.90;;;;;;5042171;28;20091;-79
2021/11/01 06:22:47;;;;;;;12.73;2.47;;;11.10;99.90;;;;;;5044981;28;20024;-80
2021/11/01 06:25:16;;;;;;;9.30;2.70;;;11.00;99.90;;;;;;5041342;28;20033;-79
2021/11/01 06:27:42;;;;;;;21.15;2.45;;;11.00;99.90;;;;;;5047727;28;20017;-79
2021/11/01 06:30:13;;;;;;;18.45;2.80;;;11.10;99.90;;;;;;5044788;28;20037;-80
2021/11/01 06:43:12;;;;;;;14.98;3.13;;;11.10;99.90;;;;;;5046215;28;20032;-80
2021/11/01 06:56:35;;;;;;;12.77;2.53;;;11.00;99.90;;;;;;5053379;28;20033;-79
2021/11/01 07:14:03;;;;;;;15.52;2.67;;;11.00;99.90;;;;;;5052752;28;20028;-79
2021/11/01 07:15:47;;;;;;;9.82;2.10;;;11.00;99.90;;;;;;5050986;28;20091;-80
2021/11/01 07:18:18;;;;;;;9.32;2.05;;;11.10;99.90;;;;;;5051598;28;20021;-80
2021/11/01 08:23:46;;;;;;;14.32;2.65;;;11.50;99.90;;;;;;4968148;28;20042;-79
2021/11/01 08:29:05;;;;;;;10.55;1.85;;;11.60;99.90;;;;;;5044035;28;20029;-79
2021/11/01 08:34:55;;;;;;;15.68;2.53;;;11.70;99.90;;;;;;5049912;28;20072;-79
2021/11/01 09:24:49;;;;;;;10.68;2.35;;;12.90;99.90;;;;;;5043141;28;20038;-83
2021/11/01 09:27:23;;;;;;;16.13;2.25;;;13.00;99.90;;;;;;5046958;28;20024;-83
2021/11/01 09:38:13;;;;;;;8.15;1.75;;;13.10;99.90;;;;;;5042636;28;20039;-84
2021/11/01 09:41:05;;;;;;;9.90;2.30;;;13.10;99.90;;;;;;5044293;28;20033;-80
2021/11/01 09:43:32;;;;;;;8.55;1.77;;;13.20;99.90;;;;;;5041954;28;20503;-77
2021/11/01 09:46:03;;;;;;;10.65;3.15;;;13.30;99.90;;;;;;5043020;28;20029;-78
2021/11/01 09:48:29;;;;;;;7.85;1.73;;;13.20;99.90;;;;;;5046349;28;20017;-77
2021/11/01 09:50:56;;;;;;;10.10;1.63;;;13.20;99.90;;;;;;5045595;28;20033;-77
2021/11/01 09:53:29;;;;;;;8.15;1.92;;;13.30;99.90;;;;;;5030258;28;20358;-77
2021/11/01 10:01:14;;;;;;;8.57;1.83;;;13.30;99.90;;;;;;5044852;28;20076;-78
2021/11/01 10:03:46;;;;;;;5.97;1.75;;;13.30;99.90;;;;;;5044303;28;20029;-77
2021/11/01 10:06:17;;;;;;;9.90;2.22;;;13.30;99.90;;;;;;5045146;28;20059;-78
2021/11/01 10:08:50;;;;;;;8.20;1.83;;;13.30;99.90;;;;;;5051432;28;20031;-78
2021/11/01 10:11:23;;;;;;;7.85;2.00;;;13.10;99.90;;;;;;5046382;28;20037;-77
2021/11/01 10:13:52;;;;;;;13.18;2.00;;;13.20;99.90;;;;;;5034982;28;20055;-78
2021/11/01 10:19:27;;;;;;;5.30;1.60;;;13.30;99.90;;;;;;5049619;28;20523;-77
2021/11/01 10:21:56;;;;;;;7.60;2.00;;;13.50;99.90;;;;;;5030315;28;20035;-77
2021/11/01 10:24:25;;;;;;;6.35;1.67;;;13.50;99.90;;;;;;5046035;28;20039;-76
2021/11/01 10:26:51;;;;;;;12.95;2.00;;;13.60;99.90;;;;;;5047578;28;20397;-76
2021/11/01 10:29:17;;;;;;;9.32;1.67;;;13.50;99.90;;;;;;5045118;28;20477;-77
2021/11/01 10:31:47;;;;;;;6.28;1.70;;;13.60;99.90;;;;;;5049601;28;20565;-79
2021/11/01 10:34:14;;;;;;;4.78;1.85;;;13.60;99.90;;;;;;5053396;28;20025;-77
2021/11/01 10:36:41;;;;;;;8.07;1.45;;;13.70;99.90;;;;;;5045035;28;20078;-79
2021/11/01 10:39:15;;;;;;;6.05;1.90;;;13.70;99.90;;;;;;5049256;28;20025;-77
2021/11/01 10:41:53;;;;;;;6.97;1.67;;;13.60;99.90;;;;;;5046334;28;20028;-77
2021/11/01 10:45:11;;;;;;;9.27;1.73;;;13.60;99.90;;;;;;5051834;28;20166;-78
2021/11/01 11:14:43;;;;;;;8.25;1.65;;;14.20;99.90;;;;;;5048308;28;20067;-77
2021/11/01 11:39:20;;;;;;;8.88;1.67;;;14.50;99.90;;;;;;5050071;28;20040;-80
2021/11/01 11:49:34;;;;;;;6.38;1.55;;;14.60;99.90;;;;;;5049258;28;20044;-81
2021/11/01 11:52:05;;;;;;;6.13;1.55;;;14.80;99.90;;;;;;5042321;28;20034;-82
2021/11/01 11:54:35;;;;;;;9.75;1.67;;;14.80;99.90;;;;;;5047608;28;20029;-82
2021/11/01 11:57:05;;;;;;;11.60;1.42;;;14.70;99.90;;;;;;5029513;28;20040;-80
2021/11/01 11:59:35;;;;;;;8.48;1.75;;;14.70;99.90;;;;;;5048867;28;20155;-79
2021/11/01 12:02:06;;;;;;;6.55;1.50;;;14.70;99.90;;;;;;5050590;28;20024;-81
2021/11/01 12:04:36;;;;;;;8.13;1.70;;;14.70;99.90;;;;;;5048761;28;20547;-80
2021/11/01 12:07:04;;;;;;;7.22;1.23;;;14.60;99.90;;;;;;5046189;28;20026;-82
2021/11/01 12:17:19;;;;;;;7.95;1.67;;;14.60;99.90;;;;;;5044895;28;20030;-81
2021/11/01 12:19:45;;;;;;;4.93;1.42;;;14.70;99.90;;;;;;5049251;28;20024;-80
2021/11/01 12:22:21;;;;;;;8.02;1.80;;;14.50;99.90;;;;;;5047962;28;20047;-79
2021/11/01 12:24:50;;;;;;;4.82;1.48;;;14.50;99.90;;;;;;5050177;28;20532;-81
2021/11/01 12:27:17;;;;;;;5.43;1.73;;;14.50;99.90;;;;;;5049397;28;20461;-80
2021/11/01 12:29:43;;;;;;;5.78;1.52;;;14.50;99.90;;;;;;5051381;28;20041;-80
2021/11/01 12:32:12;;;;;;;11.88;1.85;;;14.50;99.90;;;;;;5050885;28;20024;-83
2021/11/01 12:34:57;;;;;;;6.72;1.80;;;14.60;99.90;;;;;;5050085;28;20029;-81
2021/11/01 12:37:32;;;;;;;5.85;1.25;;;14.50;99.90;;;;;;5049581;28;20036;-79
2021/11/01 12:40:11;;;;;;;6.68;1.75;;;14.50;99.90;;;;;;5049647;28;20176;-81
2021/11/01 12:58:36;;;;;;;6.57;1.80;;;14.40;99.90;;;;;;5046890;28;20031;-80
2021/11/01 13:01:10;;;;;;;4.78;1.35;;;14.40;99.90;;;;;;5048454;28;20029;-80
2021/11/01 13:03:37;;;;;;;3.05;1.02;;;14.20;99.90;;;;;;5043036;28;20055;-79
2021/11/01 13:06:20;;;;;;;6.32;1.48;;;14.30;99.90;;;;;;5046923;28;20453;-79
2021/11/01 13:08:48;;;;;;;5.03;1.20;;;14.30;99.90;;;;;;5045146;28;20557;-80
2021/11/01 13:19:11;;;;;;;5.90;1.63;;;14.30;99.90;;;;;;5044419;28;20610;-79
2021/11/01 13:21:56;;;;;;;3.78;1.13;;;14.40;99.90;;;;;;5045649;28;20111;-83
2021/11/01 13:24:33;;;;;;;4.57;0.73;;;14.30;99.90;;;;;;5046761;28;20020;-81
2021/11/01 13:27:13;;;;;;;7.45;1.30;;;14.30;99.90;;;;;;5044383;28;20025;-80
2021/11/01 13:37:39;;;;;;;6.35;4.22;;;14.50;99.90;;;;;;5047454;28;20029;-83
2021/11/01 13:40:11;;;;;;;5.00;1.10;;;14.40;99.90;;;;;;5046804;28;20033;-82
2021/11/01 13:42:40;;;;;;;5.30;1.40;;;14.30;99.90;;;;;;5047690;28;20082;-83
2021/11/01 13:45:12;;;;;;;4.43;1.52;;;14.20;99.90;;;;;;5048684;28;20037;-81
2021/11/01 13:47:49;;;;;;;3.90;1.80;;;14.30;99.90;;;;;;5049603;28;20021;-81
2021/11/01 13:50:19;;;;;;;8.38;1.65;;;14.30;99.90;;;;;;5031332;28;20829;-80
2021/11/01 13:53:01;;;;;;;4.53;1.20;;;14.40;99.90;;;;;;5049894;28;20021;-80
2021/11/01 14:12:09;;;;;;;4.43;1.48;;;14.50;99.90;;;;;;5050856;28;20064;-82
2021/11/01 14:28:55;;;;;;;6.53;2.25;;;14.50;99.90;;;;;;5050409;28;20067;-83
2021/11/01 14:34:24;;;;;;;5.00;1.00;;;14.60;99.90;;;;;;5044567;28;20033;-84
2021/11/01 15:19:14;;;;;;;14.20;8.93;;;14.20;99.90;;;;;;5052924;28;20489;-75
2021/11/01 15:32:29;;;;;;;4.35;1.20;;;14.10;99.90;;;;;;5051954;28;20137;-77
2021/11/01 16:18:12;;;;;;;6.32;1.70;;;13.60;99.90;;;;;;5049988;28;20558;-80
2021/11/01 16:20:39;;;;;;;3.90;1.50;;;13.60;99.90;;;;;;5046209;28;20028;-80
2021/11/01 16:23:28;;;;;;;6.88;1.13;;;13.60;99.90;;;;;;5050379;28;20088;-80
2021/11/01 16:25:56;;;;;;;7.53;1.92;;;13.60;99.90;;;;;;5052154;28;20025;-80
2021/11/01 16:28:28;;;;;;;4.25;1.30;;;13.60;99.90;;;;;;5034064;28;20025;-80
2021/11/01 16:31:24;;;;;;;5.15;1.40;;;13.60;99.90;;;;;;5034105;28;20056;-80
2021/11/01 16:33:47;;;;;;;6.57;1.98;;;13.60;99.90;;;;;;5050324;28;20112;-79
2021/11/01 16:36:27;;;;;;;5.60;1.75;;;13.50;99.90;;;;;;5030979;28;20369;-80
2021/11/01 16:38:55;;;;;;;7.97;2.38;;;13.50;99.90;;;;;;5047381;28;20021;-80
2021/11/01 16:41:23;;;;;;;6.63;2.95;;;13.50;99.90;;;;;;5031461;28;20017;-80
2021/11/01 16:43:49;;;;;;;6.88;2.42;;;13.40;99.90;;;;;;5033103;28;20481;-79
2021/11/01 16:46:15;;;;;;;5.78;1.63;;;13.30;99.90;;;;;;5051368;28;20434;-80
2021/11/01 16:48:45;;;;;;;5.72;2.00;;;13.20;99.90;;;;;;5032492;28;20393;-81
2021/11/01 16:51:11;;;;;;;4.30;1.33;;;13.20;99.90;;;;;;5048334;28;20033;-81
2021/11/01 16:53:42;;;;;;;6.93;1.40;;;13.10;99.90;;;;;;5050864;28;20191;-82
2021/11/01 16:57:00;;;;;;;6.18;1.70;;;13.20;99.90;;;;;;5048849;28;20533;-80
2021/11/01 16:59:01;;;;;;;2.83;1.30;;;13.20;99.90;;;;;;5035965;28;20025;-79
2021/11/01 17:01:28;;;;;;;2.97;1.30;;;13.00;99.90;;;;;;5033949;28;20021;-78
2021/11/01 17:04:03;;;;;;;2.88;1.02;;;12.90;99.90;;;;;;5050228;28;20025;-81
2021/11/01 17:09:19;;;;;;;4.25;0.80;;;12.90;99.90;;;;;;5045456;28;20033;-79
2021/11/01 17:22:57;;;;;;;5.97;1.00;;;12.80;99.90;;;;;;5043227;28;20659;-79
2021/11/01 17:25:26;;;;;;;2.53;0.98;;;12.80;99.90;;;;;;5033740;28;20388;-79
2021/11/01 17:28:14;;;;;;;3.60;1.92;;;12.80;99.90;;;;;;5049668;28;20041;-79
2021/11/01 18:39:59;;;;;;;4.30;2.15;;;13.20;99.90;;;;;;5053436;28;20116;-77
2021/11/01 18:45:06;;;;;;;7.78;4.40;;;13.10;99.90;;;;;;5053355;28;20056;-77
2021/11/01 18:53:09;;;;;;;13.57;5.57;;;13.20;99.90;;;;;;5052654;28;20381;-76
2021/11/01 18:55:37;;;;;;;7.43;4.22;;;13.10;99.90;;;;;;5052769;28;20412;-77
2021/11/01 18:58:05;;;;;;;7.85;3.97;;;13.10;99.90;;;;;;5053145;28;20033;-76
2021/11/01 19:00:42;;;;;;;8.73;3.20;;;13.10;99.90;;;;;;5051199;28;20465;-76
2021/11/01 19:03:09;;;;;;;3.67;2.58;;;13.20;99.90;;;;;;5051524;28;20119;-77
2021/11/01 19:05:56;;;;;;;4.65;2.50;;;13.10;99.90;;;;;;5053158;28;20029;-77
2021/11/01 20:07:24;;;;;;;11.20;3.45;;;12.40;99.90;;;;;;5049888;28;20041;-82
2021/11/01 20:10:22;;;;;;;9.27;3.10;;;12.40;99.90;;;;;;5048683;28;20033;-81
2021/11/01 21:25:08;;;;;;;8.15;3.78;;;12.00;99.90;;;;;;5050392;28;20044;-80
2021/11/01 21:27:35;;;;;;;11.50;4.03;;;12.00;99.90;;;;;;5049332;28;20025;-80
2021/11/01 21:30:02;;;;;;;11.25;3.75;;;12.00;99.90;;;;;;5049432;28;20033;-81
2021/11/01 21:32:28;;;;;;;10.50;3.33;;;11.90;99.90;;;;;;5047346;28;20044;-80
2021/11/01 21:35:03;;;;;;;10.75;3.08;;;11.90;99.90;;;;;;5050226;28;20417;-80
2021/11/01 21:37:29;;;;;;;6.30;3.20;;;11.80;99.90;;;;;;5032647;28;20037;-80
2021/11/01 21:39:57;;;;;;;10.80;3.53;;;11.80;99.90;;;;;;5050016;28;20041;-78
2021/11/01 21:42:23;;;;;;;9.50;2.95;;;11.80;99.90;;;;;;5049496;28;20086;-78
2021/11/01 21:44:49;;;;;;;8.43;3.83;;;11.80;99.90;;;;;;5050703;28;20449;-77
2021/11/01 21:47:15;;;;;;;7.13;3.55;;;11.70;99.90;;;;;;5051038;28;20461;-78
2021/11/01 21:49:40;;;;;;;7.28;3.60;;;11.70;99.90;;;;;;5050491;28;20104;-77
2021/11/01 21:52:07;;;;;;;7.82;3.33;;;11.70;99.90;;;;;;5045452;28;20576;-77
2021/11/01 21:54:56;;;;;;;10.07;3.47;;;11.60;99.90;;;;;;5047276;28;20453;-77
2021/11/01 21:57:39;;;;;;;9.10;2.95;;;11.60;99.90;;;;;;5049563;28;20108;-77
2021/11/01 22:21:10;;;;;;;8.45;2.58;;;11.40;99.90;;;;;;5054554;28;20052;-77
2021/11/01 22:23:47;;;;;;;5.00;2.70;;;11.40;99.90;;;;;;5053226;28;20059;-77
2021/11/01 22:26:32;;;;;;;6.07;3.60;;;11.20;99.90;;;;;;5052620;28;20087;-77
2021/11/01 22:55:50;;;;;;;6.80;2.40;;;10.90;99.90;;;;;;5052975;28;20539;-77
2021/11/01 22:58:17;;;;;;;8.18;2.58;;;10.90;99.90;;;;;;5051709;28;20025;-77
2021/11/01 23:00:52;;;;;;;4.10;2.20;;;10.90;99.90;;;;;;5053390;28;20057;-77
2021/11/01 23:33:02;;;;;;;6.18;2.20;;;10.60;99.90;;;;;;5050695;28;20040;-77
2021/11/01 23:35:28;;;;;;;6.35;1.83;;;10.60;99.90;;;;;;5052502;28;20029;-77
2021/11/01 23:37:53;;;;;;;4.60;2.05;;;10.60;99.90;;;;;;5034957;28;20485;-77
2021/11/01 23:40:19;;;;;;;6.20;1.90;;;10.70;99.90;;;;;;5052733;28;20024;-77
2021/11/01 23:42:45;;;;;;;4.53;1.75;;;10.60;99.90;;;;;;5052856;28;20036;-77
2021/11/01 23:45:11;;;;;;;5.38;1.98;;;10.60;99.90;;;;;;5053094;28;20039;-78
2021/11/01 23:47:36;;;;;;;5.93;2.13;;;10.60;99.90;;;;;;5052895;28;20033;-77
2021/11/01 23:50:03;;;;;;;4.60;2.00;;;10.60;99.90;;;;;;5049987;28;20029;-77
2021/11/01 23:52:37;;;;;;;3.88;1.73;;;10.60;99.90;;;;;;5051002;28;20798;-77
2021/11/01 23:55:03;;;;;;;3.55;2.15;;;10.60;99.90;;;;;;5048931;28;20025;-77
2021/11/01 23:57:28;;;;;;;4.18;1.60;;;10.60;99.90;;;;;;5051448;28;20099;-77
2021/11/01 23:59:54;;;;;;;3.25;1.80;;;10.60;99.90;;;;;;5052134;28;20048;-77
